createdAt,value
2017-11-12T00:01:05.579Z,6.30
2017-11-12T00:03:31.867Z,6.20
2017-11-12T00:05:58.165Z,6.20
2017-11-12T00:08:25.202Z,6.20
2017-11-12T00:10:51.488Z,6.20
2017-11-12T00:13:17.784Z,6.20
2017-11-12T00:15:44.084Z,6.10
2017-11-12T00:18:10.383Z,6.10
2017-11-12T00:20:36.656Z,6.00
2017-11-12T00:23:02.955Z,6.00
2017-11-12T00:25:29.197Z,6.00
2017-11-12T00:27:56.232Z,6.00
2017-11-12T00:30:22.533Z,6.00
2017-11-12T00:32:48.784Z,6.10
2017-11-12T00:35:15.055Z,5.90
2017-11-12T00:37:41.343Z,6.00
2017-11-12T00:40:07.600Z,6.00
2017-11-12T00:42:33.928Z,5.90
2017-11-12T00:45:00.203Z,5.90
2017-11-12T00:47:26.500Z,5.80
2017-11-12T00:49:52.795Z,5.70
2017-11-12T00:52:19.047Z,5.70
2017-11-12T00:54:45.367Z,5.70
2017-11-12T00:57:11.642Z,5.60
2017-11-12T00:59:37.916Z,5.60
2017-11-12T01:02:04.192Z,5.50
2017-11-12T01:04:30.453Z,5.60
2017-11-12T01:06:56.755Z,5.50
2017-11-12T01:09:23.075Z,5.50
2017-11-12T01:11:49.327Z,5.50
2017-11-12T01:14:16.343Z,5.40
2017-11-12T01:16:42.656Z,5.40
2017-11-12T01:19:08.932Z,5.30
2017-11-12T01:21:35.212Z,5.30
2017-11-12T01:24:01.518Z,5.30
2017-11-12T01:26:27.781Z,5.40
2017-11-12T01:28:54.103Z,5.40
2017-11-12T01:31:20.392Z,5.30
2017-11-12T01:33:46.680Z,5.30
2017-11-12T01:36:12.987Z,5.30
2017-11-12T01:38:39.304Z,5.30
2017-11-12T01:41:06.338Z,5.30
2017-11-12T01:43:33.378Z,5.30
2017-11-12T01:45:59.684Z,5.30
2017-11-12T01:48:25.968Z,5.40
2017-11-12T01:50:53.020Z,5.40
2017-11-12T01:53:19.308Z,5.40
2017-11-12T01:55:45.607Z,5.30
2017-11-12T01:58:11.868Z,5.20
2017-11-12T02:00:38.951Z,5.20
2017-11-12T02:03:05.240Z,5.20
2017-11-12T02:05:31.552Z,5.10
2017-11-12T02:07:57.864Z,5.10
2017-11-12T02:10:24.152Z,4.90
2017-11-12T02:12:50.476Z,4.90
2017-11-12T02:15:17.807Z,4.90
2017-11-12T02:17:44.135Z,4.90
2017-11-12T02:20:10.487Z,4.90
2017-11-12T02:22:36.789Z,5.00
2017-11-12T02:25:03.088Z,5.00
2017-11-12T02:27:29.451Z,5.00
2017-11-12T02:29:55.756Z,5.00
2017-11-12T02:32:22.100Z,4.90
2017-11-12T02:34:49.199Z,5.00
2017-11-12T02:37:15.564Z,4.90
2017-11-12T02:39:41.906Z,4.90
2017-11-12T02:42:08.230Z,4.90
2017-11-12T02:44:34.528Z,4.90
2017-11-12T02:47:00.824Z,4.90
2017-11-12T02:49:27.903Z,4.90
2017-11-12T02:51:54.217Z,4.80
2017-11-12T02:54:20.534Z,4.80
2017-11-12T02:56:47.595Z,4.80
2017-11-12T02:59:13.903Z,4.80
2017-11-12T03:01:40.187Z,4.70
2017-11-12T03:04:06.493Z,4.60
2017-11-12T03:06:32.775Z,4.60
2017-11-12T03:08:59.078Z,4.50
2017-11-12T03:11:26.137Z,4.50
2017-11-12T03:13:52.463Z,4.50
2017-11-12T03:16:18.741Z,4.40
2017-11-12T03:18:45.020Z,4.50
2017-11-12T03:21:11.332Z,4.40
2017-11-12T03:23:37.640Z,4.30
2017-11-12T03:26:03.990Z,4.40
2017-11-12T03:28:31.060Z,4.40
2017-11-12T03:30:57.349Z,4.40
2017-11-12T03:33:23.644Z,4.20
2017-11-12T03:35:50.932Z,4.20
2017-11-12T03:38:17.219Z,4.00
2017-11-12T03:40:43.516Z,4.00
2017-11-12T03:43:09.832Z,4.00
2017-11-12T03:45:36.143Z,4.10
2017-11-12T03:48:02.436Z,4.00
2017-11-12T03:50:28.795Z,3.90
2017-11-12T03:52:55.088Z,3.90
2017-11-12T03:55:23.242Z,3.90
2017-11-12T03:57:50.619Z,3.90
2017-11-12T04:00:16.940Z,3.90
2017-11-12T04:02:43.221Z,3.90
2017-11-12T04:05:09.564Z,4.00
2017-11-12T04:07:35.856Z,4.00
2017-11-12T04:10:02.172Z,4.10
2017-11-12T04:12:29.210Z,4.10
2017-11-12T04:14:56.261Z,4.10
2017-11-12T04:17:22.576Z,4.10
2017-11-12T04:19:48.864Z,4.20
2017-11-12T04:22:15.159Z,4.20
2017-11-12T04:24:41.475Z,4.20
2017-11-12T04:27:07.782Z,4.00
2017-11-12T04:29:34.063Z,3.90
2017-11-12T04:32:00.364Z,4.00
2017-11-12T04:34:26.669Z,4.00
2017-11-12T04:36:52.929Z,3.90
2017-11-12T04:39:19.199Z,3.90
2017-11-12T04:41:46.227Z,4.00
2017-11-12T04:44:12.520Z,4.00
2017-11-12T04:46:38.762Z,3.90
2017-11-12T04:49:05.064Z,4.00
2017-11-12T04:51:31.324Z,4.20
2017-11-12T04:53:57.611Z,4.30
2017-11-12T04:56:23.908Z,4.10
2017-11-12T04:58:50.187Z,4.00
2017-11-12T05:01:16.543Z,4.00
2017-11-12T05:03:42.843Z,4.00
2017-11-12T05:06:09.119Z,4.10
2017-11-12T05:08:35.428Z,4.10
2017-11-12T05:11:02.447Z,4.10
2017-11-12T05:13:28.751Z,4.10
2017-11-12T05:15:55.024Z,4.00
2017-11-12T05:18:21.306Z,3.90
2017-11-12T05:20:47.595Z,3.90
2017-11-12T05:23:13.879Z,3.90
2017-11-12T05:25:40.172Z,3.80
2017-11-12T05:28:06.435Z,3.80
2017-11-12T05:30:33.776Z,3.80
2017-11-12T05:33:00.056Z,3.80
2017-11-12T05:35:27.096Z,4.00
2017-11-12T05:37:53.376Z,4.00
2017-11-12T05:40:19.638Z,3.90
2017-11-12T05:42:45.952Z,3.90
2017-11-12T05:45:12.959Z,4.10
2017-11-12T05:47:39.238Z,4.10
2017-11-12T05:50:05.543Z,4.00
2017-11-12T05:52:31.821Z,4.00
2017-11-12T05:54:58.099Z,4.00
2017-11-12T05:57:24.379Z,4.10
2017-11-12T05:59:50.687Z,4.30
2017-11-12T06:02:16.964Z,4.40
2017-11-12T06:04:43.235Z,4.20
2017-11-12T06:07:09.531Z,4.20
2017-11-12T06:09:35.836Z,4.20
2017-11-12T06:12:02.148Z,4.00
2017-11-12T06:14:29.227Z,4.00
2017-11-12T06:16:55.508Z,4.00
2017-11-12T06:19:21.865Z,4.10
2017-11-12T06:21:48.160Z,4.10
2017-11-12T06:24:15.215Z,4.40
2017-11-12T06:26:41.523Z,4.40
2017-11-12T06:29:07.815Z,4.60
2017-11-12T06:31:35.190Z,4.60
2017-11-12T06:34:01.490Z,4.70
2017-11-12T06:36:27.747Z,4.50
2017-11-12T06:38:54.056Z,4.40
2017-11-12T06:41:20.313Z,4.60
2017-11-12T06:43:46.649Z,4.70
2017-11-12T06:46:12.915Z,4.70
2017-11-12T06:48:39.236Z,4.50
2017-11-12T06:51:05.503Z,4.50
2017-11-12T06:53:31.839Z,4.50
2017-11-12T06:55:58.126Z,4.40
2017-11-12T06:58:25.143Z,4.40
2017-11-12T07:00:51.468Z,4.40
2017-11-12T07:03:17.748Z,4.50
2017-11-12T07:05:44.037Z,4.40
2017-11-12T07:08:10.352Z,4.40
2017-11-12T07:10:37.359Z,4.40
2017-11-12T07:13:03.639Z,4.40
2017-11-12T07:15:29.984Z,4.50
2017-11-12T07:17:57.052Z,4.60
2017-11-12T07:20:23.348Z,4.60
2017-11-12T07:22:49.652Z,4.70
2017-11-12T07:25:15.964Z,4.70
2017-11-12T07:27:42.240Z,4.70
2017-11-12T07:30:08.514Z,4.70
2017-11-12T07:32:34.822Z,4.70
2017-11-12T07:35:01.096Z,4.70
2017-11-12T07:37:27.371Z,4.80
2017-11-12T07:39:54.425Z,4.80
2017-11-12T07:42:20.683Z,4.80
2017-11-12T07:44:48.816Z,4.80
2017-11-12T07:47:15.141Z,4.80
2017-11-12T07:49:41.437Z,4.80
2017-11-12T07:52:07.727Z,4.90
2017-11-12T07:54:34.035Z,4.90
2017-11-12T07:57:01.056Z,4.90
2017-11-12T07:59:27.315Z,4.90
2017-11-12T08:01:54.340Z,4.90
2017-11-12T08:04:20.632Z,4.90
2017-11-12T08:06:48.735Z,4.90
2017-11-12T08:09:15.013Z,4.90
2017-11-12T08:11:41.324Z,4.90
2017-11-12T08:14:07.603Z,4.90
2017-11-12T08:16:33.899Z,4.90
2017-11-12T08:19:00.156Z,5.00
2017-11-12T08:21:26.459Z,5.00
2017-11-12T08:23:52.767Z,5.10
2017-11-12T08:26:19.040Z,5.10
2017-11-12T08:28:45.308Z,5.00
2017-11-12T08:31:11.659Z,5.00
2017-11-12T08:33:38.228Z,5.10
2017-11-12T08:36:04.536Z,5.10
2017-11-12T08:38:30.887Z,5.20
2017-11-12T08:40:57.207Z,5.10
2017-11-12T08:43:24.227Z,5.20
2017-11-12T08:45:50.591Z,5.20
2017-11-12T08:48:16.935Z,5.20
2017-11-12T08:50:43.267Z,5.20
2017-11-12T08:53:11.452Z,5.30
2017-11-12T08:55:37.735Z,5.30
2017-11-12T08:58:04.052Z,5.40
2017-11-12T09:00:31.128Z,5.40
2017-11-12T09:02:58.163Z,5.40
2017-11-12T09:05:24.445Z,5.30
2017-11-12T09:07:50.792Z,5.40
2017-11-12T09:10:17.111Z,5.40
2017-11-12T09:12:43.428Z,5.40
2017-11-12T09:15:10.471Z,5.40
2017-11-12T09:17:36.756Z,5.40
2017-11-12T09:20:03.799Z,5.40
2017-11-12T09:22:30.875Z,5.60
2017-11-12T09:24:57.920Z,5.50
2017-11-12T09:27:24.196Z,5.50
2017-11-12T09:29:50.519Z,5.40
2017-11-12T09:32:16.820Z,5.50
2017-11-12T09:34:43.088Z,5.40
2017-11-12T09:37:09.419Z,5.40
2017-11-12T09:39:35.708Z,5.40
2017-11-12T09:42:02.003Z,5.30
2017-11-12T09:44:29.086Z,5.40
2017-11-12T09:46:56.120Z,5.30
2017-11-12T09:49:22.465Z,5.40
2017-11-12T09:51:48.808Z,5.40
2017-11-12T09:54:15.123Z,5.30
2017-11-12T09:56:41.432Z,5.40
2017-11-12T09:59:07.751Z,5.30
2017-11-12T10:01:34.785Z,5.20
2017-11-12T10:04:01.079Z,5.20
2017-11-12T10:06:27.627Z,5.20
2017-11-12T10:08:53.915Z,5.30
2017-11-12T10:11:20.249Z,5.10
2017-11-12T10:13:47.686Z,5.10
2017-11-12T10:16:14.792Z,5.10
2017-11-12T10:18:41.237Z,5.00
2017-11-12T10:21:09.117Z,5.10
2017-11-12T10:23:35.834Z,5.20
2017-11-12T10:26:02.278Z,5.20
2017-11-12T10:28:29.269Z,5.20
2017-11-12T10:30:57.046Z,5.20
2017-11-12T10:33:23.609Z,5.20
2017-11-12T10:35:50.003Z,5.20
2017-11-12T10:38:17.507Z,5.20
2017-11-12T10:40:44.464Z,5.30
2017-11-12T10:43:11.644Z,5.20
2017-11-12T10:45:38.691Z,5.20
2017-11-12T10:48:05.848Z,5.20
2017-11-12T10:50:32.905Z,5.20
2017-11-12T10:53:01.356Z,5.10
2017-11-12T10:55:30.107Z,5.00
2017-11-12T10:57:58.893Z,5.00
2017-11-12T11:00:27.619Z,5.00
2017-11-12T11:02:57.053Z,5.00
2017-11-12T11:05:26.265Z,5.00
2017-11-12T11:07:55.271Z,5.00
2017-11-12T11:10:24.161Z,5.00
2017-11-12T11:12:52.894Z,5.00
2017-11-12T11:15:21.671Z,5.00
2017-11-12T11:17:50.770Z,5.00
2017-11-12T11:20:19.791Z,5.10
2017-11-12T11:22:48.746Z,5.00
2017-11-12T11:25:17.584Z,5.00
2017-11-12T11:27:46.114Z,5.00
2017-11-12T11:30:14.827Z,5.00
2017-11-12T11:32:45.038Z,5.00
2017-11-12T11:35:13.830Z,5.00
2017-11-12T11:37:42.810Z,4.90
2017-11-12T11:40:11.784Z,4.90
2017-11-12T11:42:40.644Z,4.90
2017-11-12T11:45:10.557Z,4.90
2017-11-12T11:47:39.569Z,4.90
2017-11-12T11:50:08.775Z,4.80
2017-11-12T11:52:37.357Z,4.80
2017-11-12T11:55:05.995Z,4.80
2017-11-12T11:57:35.673Z,4.60
2017-11-12T12:00:04.503Z,4.60
2017-11-12T12:02:33.588Z,4.60
2017-11-12T12:05:02.712Z,4.60
2017-11-12T12:07:31.465Z,4.70
2017-11-12T12:10:00.261Z,4.70
2017-11-12T12:12:28.910Z,4.70
2017-11-12T12:14:58.489Z,4.60
2017-11-12T12:17:27.300Z,4.60
2017-11-12T12:19:56.141Z,4.60
2017-11-12T12:22:25.686Z,4.70
2017-11-12T12:24:54.521Z,4.70
2017-11-12T12:27:23.263Z,4.80
2017-11-12T12:29:52.935Z,4.70
2017-11-12T12:32:21.676Z,4.70
2017-11-12T12:34:51.077Z,4.70
2017-11-12T12:37:19.951Z,4.70
2017-11-12T12:39:48.771Z,4.60
2017-11-12T12:42:17.794Z,4.60
2017-11-12T12:44:47.369Z,4.50
2017-11-12T12:47:16.722Z,4.50
2017-11-12T12:49:45.620Z,4.50
2017-11-12T12:52:15.813Z,4.50
2017-11-12T12:54:44.511Z,4.60
2017-11-12T12:57:13.104Z,4.60
2017-11-12T12:59:41.806Z,4.60
2017-11-12T13:02:10.749Z,4.70
2017-11-12T13:04:40.097Z,4.80
2017-11-12T13:07:09.038Z,4.80
2017-11-12T13:09:37.528Z,4.80
2017-11-12T13:12:06.329Z,4.80
2017-11-12T13:14:35.243Z,4.90
2017-11-12T13:17:04.368Z,4.90
2017-11-12T13:19:33.959Z,4.90
2017-11-12T13:22:03.417Z,4.90
2017-11-12T13:24:34.514Z,5.00
2017-11-12T13:27:03.582Z,4.90
2017-11-12T13:29:32.785Z,5.00
2017-11-12T13:32:02.700Z,5.00
2017-11-12T13:34:31.869Z,5.00
2017-11-12T13:37:00.923Z,5.00
2017-11-12T13:39:29.696Z,5.10
2017-11-12T13:41:58.825Z,5.10
2017-11-12T13:44:28.484Z,5.20
2017-11-12T13:46:57.351Z,5.30
2017-11-12T13:49:26.029Z,5.20
2017-11-12T13:51:54.869Z,5.30
2017-11-12T13:54:23.740Z,5.30
2017-11-12T13:56:52.749Z,5.40
2017-11-12T13:59:21.883Z,5.40
2017-11-12T14:01:52.460Z,5.30
2017-11-12T14:04:22.101Z,5.30
2017-11-12T14:06:52.418Z,5.30
2017-11-12T14:09:21.529Z,5.20
2017-11-12T14:11:50.547Z,5.20
2017-11-12T14:14:20.177Z,5.20
2017-11-12T14:16:49.304Z,5.20
2017-11-12T14:19:18.871Z,5.10
2017-11-12T14:21:47.420Z,5.10
2017-11-12T14:24:16.919Z,5.00
2017-11-12T14:26:46.257Z,5.10
2017-11-12T14:29:16.175Z,5.00
2017-11-12T14:31:45.488Z,5.00
2017-11-12T14:34:15.305Z,5.00
2017-11-12T14:36:45.570Z,5.00
2017-11-12T14:39:14.949Z,5.00
2017-11-12T14:41:44.834Z,5.00
2017-11-12T14:44:14.109Z,5.00
2017-11-12T14:46:42.981Z,5.00
2017-11-12T14:49:12.638Z,5.10
2017-11-12T14:51:41.515Z,5.00
2017-11-12T14:54:11.240Z,5.00
2017-11-12T14:56:42.177Z,4.90
2017-11-12T14:59:10.808Z,4.90
2017-11-12T15:01:40.517Z,5.00
2017-11-12T15:04:09.716Z,4.90
2017-11-12T15:06:39.365Z,5.00
2017-11-12T15:09:08.553Z,5.00
2017-11-12T15:11:38.253Z,5.00
2017-11-12T15:14:07.288Z,5.00
2017-11-12T15:16:37.428Z,5.00
2017-11-12T15:19:06.410Z,5.00
2017-11-12T15:21:35.319Z,5.00
2017-11-12T15:24:04.329Z,5.00
2017-11-12T15:26:33.965Z,5.00
2017-11-12T15:29:02.719Z,5.00
2017-11-12T15:31:33.605Z,5.10
2017-11-12T15:34:02.401Z,5.10
2017-11-12T15:36:32.521Z,5.10
2017-11-12T15:39:02.239Z,5.10
2017-11-12T15:41:31.139Z,5.10
2017-11-12T15:44:00.056Z,5.10
2017-11-12T15:46:29.783Z,5.10
2017-11-12T15:48:59.290Z,5.10
2017-11-12T15:51:29.239Z,5.10
2017-11-12T15:53:58.211Z,5.10
2017-11-12T15:56:26.736Z,5.00
2017-11-12T15:58:56.215Z,5.00
2017-11-12T16:01:25.457Z,5.10
2017-11-12T16:03:55.099Z,5.00
2017-11-12T16:06:24.074Z,5.00
2017-11-12T16:08:53.171Z,4.90
2017-11-12T16:11:22.550Z,4.90
2017-11-12T16:13:51.334Z,4.90
2017-11-12T16:16:20.345Z,4.90
2017-11-12T16:18:49.404Z,4.80
2017-11-12T16:21:18.656Z,4.80
2017-11-12T16:23:48.646Z,4.70
2017-11-12T16:26:17.764Z,4.70
2017-11-12T16:28:49.724Z,4.70
2017-11-12T16:31:19.457Z,4.70
2017-11-12T16:33:49.078Z,4.70
2017-11-12T16:36:17.985Z,4.70
2017-11-12T16:38:47.489Z,4.80
2017-11-12T16:41:16.586Z,4.70
2017-11-12T16:43:45.210Z,4.70
2017-11-12T16:46:15.217Z,4.90
2017-11-12T16:48:44.244Z,4.90
2017-11-12T16:51:13.916Z,4.80
2017-11-12T16:53:42.722Z,4.90
2017-11-12T16:56:11.552Z,4.90
2017-11-12T16:58:40.398Z,4.90
2017-11-12T17:01:09.307Z,4.90
2017-11-12T17:03:38.130Z,4.90
2017-11-12T17:06:06.812Z,4.90
2017-11-12T17:08:35.874Z,4.90
2017-11-12T17:11:04.814Z,4.90
2017-11-12T17:13:34.174Z,4.90
2017-11-12T17:16:02.956Z,4.90
2017-11-12T17:18:32.385Z,5.00
2017-11-12T17:21:01.054Z,4.90
2017-11-12T17:23:29.655Z,4.90
2017-11-12T17:25:58.455Z,4.80
2017-11-12T17:28:28.983Z,4.80
2017-11-12T17:30:57.977Z,4.80
2017-11-12T17:33:26.797Z,4.70
2017-11-12T17:35:55.635Z,4.60
2017-11-12T17:38:25.207Z,4.50
2017-11-12T17:40:53.982Z,4.50
2017-11-12T17:43:22.765Z,4.50
2017-11-12T17:45:52.290Z,4.50
2017-11-12T17:48:22.149Z,4.50
2017-11-12T17:50:51.300Z,4.50
2017-11-12T17:53:19.961Z,4.40
2017-11-12T17:55:48.564Z,4.40
2017-11-12T17:58:17.716Z,4.30
2017-11-12T18:00:46.563Z,4.30
2017-11-12T18:03:15.323Z,4.30
2017-11-12T18:05:45.731Z,4.30
2017-11-12T18:08:14.726Z,4.30
2017-11-12T18:10:43.520Z,4.30
2017-11-12T18:13:12.721Z,4.20
2017-11-12T18:15:41.970Z,4.20
2017-11-12T18:18:12.583Z,4.10
2017-11-12T18:20:41.640Z,4.10
2017-11-12T18:23:11.514Z,4.10
2017-11-12T18:25:40.502Z,4.10
2017-11-12T18:28:11.403Z,4.10
2017-11-12T18:30:41.479Z,4.10
2017-11-12T18:33:10.096Z,4.10
2017-11-12T18:35:39.156Z,4.10
2017-11-12T18:38:08.108Z,4.00
2017-11-12T18:40:37.871Z,4.00
2017-11-12T18:43:07.120Z,4.00
2017-11-12T18:45:36.619Z,4.00
2017-11-12T18:48:06.301Z,4.00
2017-11-12T18:50:35.043Z,4.00
2017-11-12T18:53:04.599Z,3.90
2017-11-12T18:55:35.236Z,3.90
2017-11-12T18:58:04.673Z,4.00
2017-11-12T19:00:38.942Z,4.10
2017-11-12T19:03:15.425Z,4.10
2017-11-12T19:05:50.043Z,4.10
2017-11-12T19:08:33.726Z,4.10
2017-11-12T19:11:04.587Z,4.00
2017-11-12T19:13:34.938Z,4.10
2017-11-12T19:16:04.822Z,4.00
2017-11-12T19:18:35.494Z,4.00
2017-11-12T19:21:06.503Z,4.10
2017-11-12T19:23:35.409Z,4.00
2017-11-12T19:29:02.858Z,4.00
2017-11-12T19:31:31.703Z,4.00
2017-11-12T19:34:00.236Z,4.00
2017-11-12T19:36:29.661Z,4.00
2017-11-12T19:38:59.582Z,4.00
2017-11-12T19:41:29.618Z,4.00
2017-11-12T19:43:59.438Z,3.80
2017-11-12T19:46:28.910Z,3.80
2017-11-12T19:48:57.606Z,3.80
2017-11-12T19:51:26.564Z,3.80
2017-11-12T19:53:56.029Z,3.70
2017-11-12T19:56:27.189Z,3.60
2017-11-12T19:58:56.496Z,3.60
2017-11-12T20:01:25.297Z,3.70
2017-11-12T20:03:55.950Z,3.60
2017-11-12T20:06:25.408Z,3.60
2017-11-12T20:08:53.989Z,3.60
2017-11-12T20:11:22.602Z,3.60
2017-11-12T20:13:52.268Z,3.70
2017-11-12T20:16:20.966Z,3.80
2017-11-12T20:18:52.006Z,3.80
2017-11-12T20:21:20.970Z,3.90
2017-11-12T20:23:50.738Z,3.90
2017-11-12T20:26:19.885Z,3.90
2017-11-12T20:28:48.808Z,3.90
2017-11-12T20:31:17.858Z,4.00
2017-11-12T20:33:46.804Z,4.00
2017-11-12T20:36:17.568Z,4.00
2017-11-12T20:38:47.736Z,4.10
2017-11-12T20:41:16.260Z,4.10
2017-11-12T20:43:45.059Z,4.10
2017-11-12T20:46:14.585Z,4.20
2017-11-12T20:48:43.809Z,4.20
2017-11-12T20:51:16.068Z,4.10
2017-11-12T20:53:45.804Z,4.20
2017-11-12T20:56:15.026Z,4.20
2017-11-12T20:58:44.768Z,4.10
2017-11-12T21:01:14.462Z,4.10
2017-11-12T21:03:47.936Z,4.10
2017-11-12T21:06:18.322Z,4.10
2017-11-12T21:08:47.193Z,4.10
2017-11-12T21:11:16.455Z,4.10
2017-11-12T21:13:46.121Z,4.10
2017-11-12T21:16:15.158Z,4.10
2017-11-12T21:18:44.030Z,4.10
2017-11-12T21:21:15.542Z,4.10
2017-11-12T21:23:47.904Z,4.20
2017-11-12T21:26:17.718Z,4.20
2017-11-12T21:28:53.101Z,4.20
2017-11-12T21:31:24.095Z,4.10
2017-11-12T21:33:55.610Z,4.10
2017-11-12T21:36:26.354Z,4.10
2017-11-12T21:38:55.417Z,4.10
2017-11-12T21:41:24.113Z,4.20
2017-11-12T21:43:53.124Z,4.10
2017-11-12T21:46:25.536Z,4.10
2017-11-12T21:48:55.429Z,4.10
2017-11-12T21:51:24.527Z,4.00
2017-11-12T21:53:52.957Z,4.00
2017-11-12T21:56:23.107Z,4.00
2017-11-12T21:58:52.790Z,4.10
2017-11-12T22:01:21.930Z,4.10
2017-11-12T22:03:51.326Z,4.10
2017-11-12T22:06:20.149Z,4.10
2017-11-12T22:08:50.080Z,4.30
2017-11-12T22:11:19.250Z,4.40
2017-11-12T22:13:48.133Z,4.30
2017-11-12T22:16:17.177Z,4.40
2017-11-12T22:18:45.952Z,4.40
2017-11-12T22:21:14.533Z,4.40
2017-11-12T22:23:43.891Z,4.50
2017-11-12T22:26:13.004Z,4.60
2017-11-12T22:28:42.726Z,4.60
2017-11-12T22:31:11.637Z,4.60
2017-11-12T22:33:40.894Z,4.60
2017-11-12T22:36:11.066Z,4.70
2017-11-12T22:38:40.379Z,4.70
2017-11-12T22:41:09.724Z,4.70
2017-11-12T22:43:38.465Z,4.70
2017-11-12T22:46:07.058Z,4.70
2017-11-12T22:48:36.313Z,4.70
2017-11-12T22:51:05.579Z,4.70
2017-11-12T22:53:34.517Z,4.70
2017-11-12T22:56:03.355Z,4.70
2017-11-12T22:58:32.932Z,4.60
2017-11-12T23:01:02.098Z,4.70
2017-11-12T23:03:30.208Z,4.70
2017-11-12T23:05:56.736Z,4.70
2017-11-12T23:08:23.060Z,4.70
2017-11-12T23:10:49.357Z,4.70
2017-11-12T23:13:15.627Z,4.70
2017-11-12T23:15:41.959Z,4.70
2017-11-12T23:18:08.243Z,4.70
2017-11-12T23:20:35.278Z,4.70
2017-11-12T23:23:01.548Z,4.70
2017-11-12T23:25:28.588Z,4.70
2017-11-12T23:27:54.855Z,4.70
2017-11-12T23:30:22.239Z,4.70
2017-11-12T23:32:48.509Z,4.60
2017-11-12T23:35:14.796Z,4.70
2017-11-12T23:37:41.835Z,4.70
2017-11-12T23:40:08.103Z,4.70
2017-11-12T23:42:35.144Z,4.60
2017-11-12T23:45:02.161Z,4.70
2017-11-12T23:47:28.415Z,4.70
2017-11-12T23:49:54.707Z,4.70
2017-11-12T23:52:21.728Z,4.70
2017-11-12T23:54:47.987Z,4.70
2017-11-12T23:57:15.036Z,4.70
2017-11-12T23:59:41.319Z,4.80
